Time;durP1;ratioP1;P1;durP2;ratioP2;P2;SDS_P1;SDS_P2;PMS_P1;PMS_P2;Temp;Humidity;BMP_temperature;BMP_pressure;BME280_temperature;BME280_humidity;BME280_pressure;Samples;Min_cycle;Max_cycle;Signal;HPM_P1;HPM_P2
2023/09/05 00:00:01;;;;;;;8.05;3.75;;;13.90;99.90;;;;;;5022085;28;20021;-63
2023/09/05 00:02:26;;;;;;;6.45;3.28;;;13.90;99.90;;;;;;5025633;28;20075;-65
2023/09/05 00:04:55;;;;;;;7.13;3.70;;;13.90;99.90;;;;;;5019283;28;20394;-65
2023/09/05 00:07:21;;;;;;;4.22;3.53;;;13.90;99.90;;;;;;5019827;28;20025;-65
2023/09/05 00:09:47;;;;;;;5.05;3.70;;;13.90;99.90;;;;;;5016112;28;20102;-65
2023/09/05 00:12:12;;;;;;;4.57;3.55;;;13.90;99.90;;;;;;5022169;28;20040;-64
2023/09/05 00:14:38;;;;;;;6.68;3.50;;;13.90;99.90;;;;;;5017408;28;20586;-65
2023/09/05 00:17:03;;;;;;;3.80;3.28;;;13.90;99.90;;;;;;5013763;28;20006;-65
2023/09/05 00:19:29;;;;;;;5.60;3.50;;;13.90;99.90;;;;;;5023987;28;20091;-65
2023/09/05 00:21:54;;;;;;;5.95;3.05;;;13.90;99.90;;;;;;5019913;28;20056;-65
2023/09/05 00:24:27;;;;;;;4.30;3.58;;;13.90;99.90;;;;;;5020216;28;20029;-65
2023/09/05 00:26:54;;;;;;;4.18;3.63;;;13.80;99.90;;;;;;5019841;28;20397;-65
2023/09/05 00:29:20;;;;;;;4.85;3.38;;;13.90;99.90;;;;;;5018364;28;20037;-65
2023/09/05 00:31:46;;;;;;;5.65;3.42;;;13.90;99.90;;;;;;5017434;28;20041;-65
2023/09/05 00:34:13;;;;;;;5.82;3.67;;;13.80;99.90;;;;;;5018065;28;20033;-64
2023/09/05 00:36:39;;;;;;;4.45;3.35;;;13.80;99.90;;;;;;5018987;28;20034;-65
2023/09/05 00:39:05;;;;;;;3.78;3.30;;;13.80;99.90;;;;;;5014300;28;20026;-66
2023/09/05 00:41:31;;;;;;;4.70;3.05;;;13.80;99.90;;;;;;5022325;28;20428;-65
2023/09/05 00:43:56;;;;;;;5.45;3.63;;;13.80;99.90;;;;;;5016836;28;20545;-65
2023/09/05 00:46:22;;;;;;;5.78;3.90;;;13.80;99.90;;;;;;5022058;28;20106;-65
2023/09/05 00:48:47;;;;;;;4.32;3.55;;;13.80;99.90;;;;;;5018712;28;20028;-65
2023/09/05 00:51:13;;;;;;;4.13;3.65;;;13.80;99.90;;;;;;5018372;28;20065;-65
2023/09/05 00:53:39;;;;;;;4.60;3.72;;;13.80;99.90;;;;;;5023828;28;20511;-64
2023/09/05 00:56:05;;;;;;;3.78;3.22;;;13.80;99.90;;;;;;5020893;28;20108;-65
2023/09/05 00:58:30;;;;;;;4.53;3.35;;;13.80;99.90;;;;;;5020765;28;20029;-65
2023/09/05 01:00:56;;;;;;;5.07;3.47;;;13.80;99.90;;;;;;5019381;28;20025;-65
2023/09/05 01:03:22;;;;;;;4.72;3.60;;;13.70;99.90;;;;;;5019587;28;20424;-65
2023/09/05 01:05:54;;;;;;;5.47;3.60;;;13.70;99.90;;;;;;5019610;28;20029;-66
2023/09/05 01:08:31;;;;;;;5.20;3.30;;;13.70;99.90;;;;;;5019446;28;20029;-65
2023/09/05 01:11:00;;;;;;;4.30;3.58;;;13.70;99.90;;;;;;5013993;28;20026;-65
2023/09/05 01:13:27;;;;;;;5.22;3.90;;;13.70;99.90;;;;;;5023923;28;20033;-65
2023/09/05 01:15:53;;;;;;;7.82;3.50;;;13.70;99.90;;;;;;5020605;28;20064;-65
2023/09/05 01:18:20;;;;;;;5.85;3.33;;;13.60;99.90;;;;;;5023333;28;20101;-63
2023/09/05 01:20:56;;;;;;;4.53;3.30;;;13.60;99.90;;;;;;5025161;28;20044;-66
2023/09/05 01:23:24;;;;;;;;;;;13.60;99.90;;;;;;5021116;28;20030;-65
2023/09/05 01:25:50;;;;;;;4.97;3.05;;;13.60;99.90;;;;;;5025882;28;19913;-62
2023/09/05 01:28:16;;;;;;;3.22;2.92;;;13.60;99.90;;;;;;5024730;28;20100;-62
2023/09/05 01:30:42;;;;;;;4.97;3.70;;;13.60;99.90;;;;;;5024173;28;20022;-62
2023/09/05 01:33:08;;;;;;;6.75;3.67;;;13.60;99.90;;;;;;5023739;28;20037;-62
2023/09/05 01:35:33;;;;;;;5.70;3.85;;;13.60;99.90;;;;;;5025721;28;20028;-62
2023/09/05 01:37:59;;;;;;;3.78;3.10;;;13.60;99.90;;;;;;5020774;28;20100;-62
2023/09/05 01:40:24;;;;;;;5.55;3.63;;;13.60;99.90;;;;;;5022299;28;20029;-62
2023/09/05 01:42:50;;;;;;;7.43;3.72;;;13.60;99.90;;;;;;5022551;28;20194;-62
2023/09/05 01:45:15;;;;;;;4.05;3.30;;;13.60;99.90;;;;;;5021079;28;20075;-62
2023/09/05 01:47:41;;;;;;;6.05;3.67;;;13.60;99.90;;;;;;5025605;28;20034;-62
2023/09/05 01:50:06;;;;;;;5.18;3.65;;;13.60;99.90;;;;;;5026365;28;20035;-62
2023/09/05 01:52:32;;;;;;;4.28;3.50;;;13.60;99.90;;;;;;5025240;28;20052;-62
2023/09/05 01:54:57;;;;;;;4.47;3.97;;;13.60;99.90;;;;;;5023394;28;20524;-62
2023/09/05 01:57:23;;;;;;;8.93;3.38;;;13.60;99.90;;;;;;5019052;28;20021;-62
2023/09/05 01:59:48;;;;;;;3.88;3.53;;;13.50;99.90;;;;;;5020715;28;20036;-62
2023/09/05 02:02:14;;;;;;;5.22;3.28;;;13.50;99.90;;;;;;5020993;28;20040;-62
2023/09/05 02:04:39;;;;;;;4.78;3.80;;;13.40;99.90;;;;;;5020976;28;20068;-62
2023/09/05 02:07:08;;;;;;;3.70;3.25;;;13.40;99.90;;;;;;5019546;28;20509;-62
2023/09/05 02:09:35;;;;;;;6.40;3.75;;;13.50;99.90;;;;;;5031499;28;20041;-62
2023/09/05 02:12:00;;;;;;;3.08;2.78;;;13.40;99.90;;;;;;5022932;28;20033;-62
2023/09/05 02:14:26;;;;;;;4.10;3.55;;;13.40;99.90;;;;;;5021097;28;20021;-62
2023/09/05 02:16:52;;;;;;;5.88;3.40;;;13.40;99.90;;;;;;5019740;28;20028;-62
2023/09/05 02:19:19;;;;;;;4.68;3.78;;;13.30;99.90;;;;;;5021129;28;20109;-62
2023/09/05 02:21:44;;;;;;;6.85;3.90;;;13.40;99.90;;;;;;5015818;28;20030;-62
2023/09/05 02:24:10;;;;;;;4.55;3.20;;;13.30;99.90;;;;;;5024001;28;20028;-62
2023/09/05 02:26:37;;;;;;;5.38;3.90;;;13.40;99.90;;;;;;5017436;28;20097;-63
2023/09/05 02:29:02;;;;;;;6.13;4.13;;;13.30;99.90;;;;;;5021355;28;20024;-62
2023/09/05 02:31:28;;;;;;;5.10;3.80;;;13.30;99.90;;;;;;5018226;28;20037;-63
2023/09/05 02:33:53;;;;;;;4.95;3.20;;;13.30;99.90;;;;;;5023302;28;20021;-62
2023/09/05 02:36:20;;;;;;;4.43;3.50;;;13.30;99.90;;;;;;5020635;28;20037;-62
2023/09/05 02:38:46;;;;;;;4.50;3.50;;;13.30;99.90;;;;;;5020692;28;20075;-62
2023/09/05 02:41:12;;;;;;;6.45;3.70;;;13.30;99.90;;;;;;5020541;28;20432;-62
2023/09/05 02:43:38;;;;;;;5.47;3.80;;;13.20;99.90;;;;;;5022243;28;20221;-63
2023/09/05 02:46:04;;;;;;;6.43;3.53;;;13.20;99.90;;;;;;5014868;28;20033;-62
2023/09/05 02:48:29;;;;;;;4.15;3.70;;;13.20;99.90;;;;;;5020355;28;20107;-62
2023/09/05 02:51:03;;;;;;;5.55;3.38;;;13.20;99.90;;;;;;5018708;28;20017;-62
2023/09/05 02:53:28;;;;;;;4.80;3.40;;;13.10;99.90;;;;;;5018603;28;20033;-63
2023/09/05 02:55:53;;;;;;;6.00;3.45;;;13.10;99.90;;;;;;5020387;28;20032;-62
2023/09/05 02:58:19;;;;;;;6.40;3.50;;;13.20;99.90;;;;;;5014594;28;20037;-62
2023/09/05 03:00:49;;;;;;;3.88;3.45;;;13.10;99.90;;;;;;5013235;28;20053;-61
2023/09/05 03:03:16;;;;;;;3.17;2.88;;;13.10;99.90;;;;;;5017106;28;20030;-62
2023/09/05 03:05:42;;;;;;;4.60;3.33;;;13.10;99.90;;;;;;5019459;28;20040;-62
2023/09/05 03:08:08;;;;;;;6.53;3.60;;;13.10;99.90;;;;;;5013133;28;20045;-63
2023/09/05 03:10:34;;;;;;;4.90;3.40;;;13.00;99.90;;;;;;5015142;28;20033;-63
2023/09/05 03:12:59;;;;;;;4.03;3.63;;;13.10;99.90;;;;;;5014610;28;20057;-62
2023/09/05 03:15:25;;;;;;;5.97;3.60;;;13.00;99.90;;;;;;5010532;28;20101;-62
2023/09/05 03:17:51;;;;;;;6.00;3.55;;;13.00;99.90;;;;;;5016859;28;20075;-61
2023/09/05 03:20:18;;;;;;;3.92;3.40;;;13.00;99.90;;;;;;5014903;28;20025;-62
2023/09/05 03:22:44;;;;;;;4.88;3.65;;;13.00;99.90;;;;;;5017890;28;20701;-63
2023/09/05 03:25:10;;;;;;;4.85;3.75;;;13.00;99.90;;;;;;5016804;28;20080;-63
2023/09/05 03:27:35;;;;;;;4.72;3.78;;;13.00;99.90;;;;;;5015353;28;20109;-62
2023/09/05 03:30:01;;;;;;;4.13;3.70;;;13.00;99.90;;;;;;5012889;28;20806;-62
2023/09/05 03:32:27;;;;;;;4.88;3.60;;;12.90;99.90;;;;;;5016361;28;20096;-62
2023/09/05 03:34:52;;;;;;;4.93;3.60;;;12.90;99.90;;;;;;5015281;28;20500;-62
2023/09/05 03:37:18;;;;;;;5.30;3.42;;;12.90;99.90;;;;;;5023328;28;20108;-62
2023/09/05 03:39:43;;;;;;;5.95;4.40;;;12.90;99.90;;;;;;5013477;28;20037;-62
2023/09/05 03:42:10;;;;;;;4.63;3.90;;;12.90;99.90;;;;;;5018020;28;20124;-62
2023/09/05 03:44:36;;;;;;;10.68;3.40;;;12.80;99.90;;;;;;5024868;28;20079;-62
2023/09/05 03:47:01;;;;;;;4.88;4.03;;;12.80;99.90;;;;;;5012474;28;20029;-62
2023/09/05 03:49:27;;;;;;;9.27;4.00;;;12.80;99.90;;;;;;5018401;28;20049;-62
2023/09/05 03:51:57;;;;;;;4.50;3.63;;;12.80;99.90;;;;;;5017503;28;20696;-62
2023/09/05 03:54:22;;;;;;;5.05;3.58;;;12.80;99.90;;;;;;5015150;28;20029;-62
2023/09/05 03:56:48;;;;;;;4.90;3.80;;;12.80;99.90;;;;;;5012645;28;20913;-63
2023/09/05 03:59:14;;;;;;;4.38;3.80;;;12.70;99.90;;;;;;5017188;28;20504;-62
2023/09/05 04:01:40;;;;;;;5.05;3.95;;;12.70;99.90;;;;;;5019774;28;20038;-62
2023/09/05 04:04:08;;;;;;;5.22;3.83;;;12.70;99.90;;;;;;5020211;28;20094;-62
2023/09/05 04:06:34;;;;;;;4.13;3.50;;;12.70;99.90;;;;;;5018750;28;20013;-62
2023/09/05 04:08:59;;;;;;;5.18;4.03;;;12.70;99.90;;;;;;5021170;28;20164;-62
2023/09/05 04:11:25;;;;;;;5.15;3.70;;;12.70;99.90;;;;;;5022195;28;20036;-62
2023/09/05 04:13:50;;;;;;;5.97;3.53;;;12.60;99.90;;;;;;5014400;28;20050;-62
2023/09/05 04:16:16;;;;;;;5.50;4.50;;;12.60;99.90;;;;;;5022612;28;20488;-61
2023/09/05 04:18:41;;;;;;;4.13;3.72;;;12.60;99.90;;;;;;5018647;28;20034;-62
2023/09/05 04:21:07;;;;;;;5.03;4.15;;;12.60;99.90;;;;;;5027460;28;20061;-62
2023/09/05 04:23:32;;;;;;;5.72;4.53;;;12.60;99.90;;;;;;5025918;28;20025;-62
2023/09/05 04:26:00;;;;;;;5.13;4.20;;;12.60;99.90;;;;;;5020329;28;20103;-62
2023/09/05 04:28:26;;;;;;;4.88;3.90;;;12.60;99.90;;;;;;5016176;28;20029;-62
2023/09/05 04:30:55;;;;;;;5.03;4.15;;;12.60;99.90;;;;;;5021455;28;20041;-62
2023/09/05 04:33:31;;;;;;;6.00;4.68;;;12.70;99.90;;;;;;5014922;28;20022;-62
2023/09/05 04:35:56;;;;;;;4.55;3.92;;;12.70;99.90;;;;;;5011745;28;20364;-62
2023/09/05 04:38:22;;;;;;;5.43;4.05;;;12.70;99.90;;;;;;5022783;28;20043;-62
2023/09/05 04:40:47;;;;;;;8.55;3.75;;;12.60;99.90;;;;;;5020849;28;20033;-62
2023/09/05 04:43:13;;;;;;;5.88;3.95;;;12.70;99.90;;;;;;5017201;28;20449;-61
2023/09/05 04:45:38;;;;;;;6.60;4.95;;;12.70;99.90;;;;;;5023510;28;20029;-62
2023/09/05 04:48:04;;;;;;;5.95;4.82;;;12.70;99.90;;;;;;5017444;28;20254;-63
2023/09/05 04:50:30;;;;;;;7.47;6.28;;;12.70;99.90;;;;;;5015928;28;20022;-62
2023/09/05 04:52:56;;;;;;;6.63;4.53;;;12.80;99.90;;;;;;5019677;28;20037;-62
2023/09/05 04:55:22;;;;;;;5.75;5.13;;;12.80;99.90;;;;;;5019868;28;20030;-62
2023/09/05 04:57:47;;;;;;;6.25;5.00;;;12.80;99.90;;;;;;5019520;28;20084;-62
2023/09/05 05:00:13;;;;;;;6.97;5.75;;;12.80;99.90;;;;;;5018202;28;20112;-62
2023/09/05 05:02:39;;;;;;;5.90;5.30;;;12.90;99.90;;;;;;5023516;28;20021;-62
2023/09/05 05:05:06;;;;;;;6.18;5.57;;;12.90;99.90;;;;;;5023381;28;20021;-61
2023/09/05 05:07:32;;;;;;;7.40;5.15;;;13.00;99.90;;;;;;5026035;28;20056;-62
2023/09/05 05:09:57;;;;;;;5.90;4.70;;;13.00;99.90;;;;;;5023473;28;20477;-63
2023/09/05 05:12:23;;;;;;;7.28;4.63;;;13.00;99.90;;;;;;5016920;28;20518;-62
2023/09/05 05:14:49;;;;;;;6.82;3.85;;;13.10;99.90;;;;;;5015388;28;20053;-62
2023/09/05 05:17:14;;;;;;;7.25;4.40;;;13.20;99.90;;;;;;5028355;28;20523;-62
2023/09/05 05:19:40;;;;;;;4.22;3.83;;;13.70;99.90;;;;;;5025678;28;20071;-62
2023/09/05 05:22:06;;;;;;;3.53;3.17;;;14.60;99.90;;;;;;5024909;28;20104;-63
2023/09/05 05:24:31;;;;;;;4.45;3.17;;;15.80;99.90;;;;;;5022761;28;20080;-62
2023/09/05 05:26:57;;;;;;;3.83;3.17;;;16.90;99.90;;;;;;5022678;28;20258;-63
2023/09/05 05:29:22;;;;;;;5.55;3.42;;;18.10;99.90;;;;;;5022847;28;20051;-62
2023/09/05 05:31:48;;;;;;;4.13;3.15;;;19.10;99.90;;;;;;5026614;28;20041;-62
2023/09/05 05:34:14;;;;;;;4.47;3.42;;;20.10;99.90;;;;;;5033225;28;20021;-61
2023/09/05 05:36:40;;;;;;;4.38;2.88;;;21.00;97.50;;;;;;5020393;28;20118;-62
2023/09/05 05:39:05;;;;;;;2.70;2.38;;;21.80;95.20;;;;;;5022806;28;20078;-62
2023/09/05 05:41:34;;;;;;;4.25;2.35;;;22.50;92.90;;;;;;5018908;28;20107;-61
2023/09/05 05:43:59;;;;;;;4.07;2.20;;;23.30;90.60;;;;;;5023525;28;20017;-61
2023/09/05 05:46:25;;;;;;;2.72;2.40;;;24.10;85.80;;;;;;5027745;28;20045;-57
2023/09/05 05:48:51;;;;;;;3.53;2.20;;;24.80;82.20;;;;;;5026500;28;20033;-64
2023/09/05 05:51:17;;;;;;;3.60;2.42;;;25.30;78.30;;;;;;5028427;28;20013;-63
2023/09/05 05:53:44;;;;;;;1.85;1.75;;;26.00;74.50;;;;;;5026555;28;20466;-63
2023/09/05 05:56:10;;;;;;;2.28;2.08;;;26.60;73.30;;;;;;5022452;28;20030;-63
2023/09/05 05:58:36;;;;;;;3.10;2.03;;;26.40;71.00;;;;;;5022238;28;20032;-63
2023/09/05 06:01:06;;;;;;;3.17;2.10;;;26.20;71.80;;;;;;5022235;28;20056;-63
2023/09/05 06:03:32;;;;;;;3.33;2.35;;;26.00;71.30;;;;;;5021301;28;20078;-63
2023/09/05 06:05:58;;;;;;;3.05;1.92;;;26.20;67.70;;;;;;5019728;28;20022;-63
2023/09/05 06:08:23;;;;;;;3.13;2.30;;;26.70;68.30;;;;;;5024113;28;20025;-63
2023/09/05 06:10:49;;;;;;;3.38;1.90;;;27.50;66.40;;;;;;5026610;28;20293;-63
2023/09/05 06:13:14;;;;;;;3.75;1.95;;;28.20;63.90;;;;;;5017273;28;20501;-63
2023/09/05 06:15:40;;;;;;;2.40;1.80;;;29.00;60.70;;;;;;5024011;28;20045;-63
2023/09/05 06:18:08;;;;;;;3.63;2.03;;;29.60;57.00;;;;;;5023857;28;20092;-63
2023/09/05 06:20:34;;;;;;;3.65;1.83;;;30.00;54.20;;;;;;5021758;28;20014;-63
2023/09/05 06:23:00;;;;;;;3.38;1.65;;;30.30;51.90;;;;;;5021987;28;20029;-61
2023/09/05 06:25:26;;;;;;;2.20;1.90;;;30.30;51.30;;;;;;5021741;28;20112;-61
2023/09/05 06:27:51;;;;;;;3.53;2.08;;;30.10;46.90;;;;;;5023457;28;20434;-62
2023/09/05 06:30:17;;;;;;;2.45;1.67;;;30.10;49.30;;;;;;5025667;28;20515;-61
2023/09/05 06:32:43;;;;;;;2.42;1.80;;;30.40;46.60;;;;;;5021458;28;20045;-61
2023/09/05 06:35:09;;;;;;;2.33;2.13;;;30.50;45.50;;;;;;5015012;28;20406;-62
2023/09/05 06:37:36;;;;;;;3.58;1.95;;;30.30;43.00;;;;;;5023875;28;20556;-62
2023/09/05 06:40:05;;;;;;;2.05;1.77;;;29.80;42.20;;;;;;5021488;28;20033;-61
2023/09/05 06:42:30;;;;;;;2.28;1.70;;;29.70;43.80;;;;;;5021365;28;20033;-61
2023/09/05 06:44:56;;;;;;;2.05;1.80;;;30.10;40.40;;;;;;5026066;28;20177;-62
2023/09/05 06:47:21;;;;;;;3.60;1.65;;;30.50;42.30;;;;;;5021345;28;20416;-62
2023/09/05 06:49:47;;;;;;;2.00;1.80;;;30.70;41.10;;;;;;5021577;28;20036;-62
2023/09/05 06:52:12;;;;;;;2.15;1.88;;;31.10;40.20;;;;;;5021120;28;20038;-62
2023/09/05 06:54:38;;;;;;;3.67;1.83;;;31.40;39.40;;;;;;5021197;28;20169;-62
2023/09/05 06:57:03;;;;;;;1.92;1.60;;;31.60;37.70;;;;;;5021097;28;20108;-61
2023/09/05 06:59:29;;;;;;;1.50;1.40;;;32.30;36.10;;;;;;5021185;28;20036;-61
2023/09/05 07:01:54;;;;;;;1.70;1.60;;;32.40;34.70;;;;;;5022856;28;20030;-62
2023/09/05 07:04:20;;;;;;;2.33;1.70;;;32.80;33.90;;;;;;5023716;28;20040;-61
2023/09/05 07:06:47;;;;;;;1.63;1.50;;;33.10;32.80;;;;;;5026960;28;20389;-61
2023/09/05 07:09:14;;;;;;;3.15;1.75;;;33.50;31.50;;;;;;5020964;28;20401;-61
2023/09/05 07:11:40;;;;;;;2.45;1.80;;;33.90;30.40;;;;;;5020694;28;20219;-62
2023/09/05 07:14:06;;;;;;;3.45;1.80;;;34.30;29.60;;;;;;5013779;28;20177;-60
2023/09/05 07:16:31;;;;;;;2.85;1.40;;;34.70;28.40;;;;;;5026526;28;20022;-61
2023/09/05 07:18:57;;;;;;;2.00;1.55;;;34.80;26.70;;;;;;5020698;28;20104;-61
2023/09/05 07:21:22;;;;;;;3.08;1.48;;;34.80;25.20;;;;;;5021026;28;20095;-61
2023/09/05 07:23:48;;;;;;;1.90;1.70;;;34.80;25.70;;;;;;5023108;28;20029;-61
2023/09/05 07:26:13;;;;;;;4.75;1.70;;;34.60;24.70;;;;;;5023446;28;20029;-61
2023/09/05 07:28:38;;;;;;;2.00;1.80;;;34.20;24.70;;;;;;5022383;28;20036;-61
2023/09/05 07:31:04;;;;;;;1.70;1.55;;;33.90;24.20;;;;;;5020069;28;20072;-61
2023/09/05 07:33:30;;;;;;;2.28;1.45;;;33.60;23.80;;;;;;5020386;28;20067;-61
2023/09/05 07:35:55;;;;;;;2.47;1.48;;;33.60;24.10;;;;;;5022603;28;20087;-61
2023/09/05 07:38:21;;;;;;;2.97;1.63;;;33.60;22.80;;;;;;5022207;28;20493;-61
2023/09/05 07:41:03;;;;;;;1.40;1.30;;;33.40;23.40;;;;;;5020242;28;20025;-61
2023/09/05 07:43:30;;;;;;;3.15;1.65;;;32.90;21.60;;;;;;5028995;28;20050;-61
2023/09/05 07:45:56;;;;;;;2.22;1.60;;;32.70;23.90;;;;;;5020228;28;20025;-61
2023/09/05 07:48:21;;;;;;;1.98;1.58;;;32.40;23.40;;;;;;5021202;28;20033;-60
2023/09/05 07:50:46;;;;;;;2.90;1.55;;;32.30;23.60;;;;;;5022035;28;20029;-60
2023/09/05 07:53:12;;;;;;;2.67;1.75;;;32.30;24.10;;;;;;5021708;28;20480;-61
2023/09/05 07:55:38;;;;;;;2.95;1.70;;;32.00;23.80;;;;;;5020203;28;20102;-61
2023/09/05 07:58:04;;;;;;;1.50;1.40;;;32.00;23.60;;;;;;5016268;28;20041;-61
2023/09/05 08:00:29;;;;;;;4.05;1.77;;;32.10;23.90;;;;;;5021682;28;20101;-61
2023/09/05 08:02:55;;;;;;;2.10;1.90;;;31.90;24.10;;;;;;5022699;28;20025;-61
2023/09/05 08:05:21;;;;;;;3.97;1.70;;;31.90;22.80;;;;;;5023868;28;20025;-60
2023/09/05 08:07:47;;;;;;;6.43;1.77;;;31.80;23.30;;;;;;5021683;28;20029;-61
2023/09/05 08:10:12;;;;;;;2.03;1.45;;;31.70;22.20;;;;;;5019822;28;20029;-61
2023/09/05 08:12:38;;;;;;;1.55;1.45;;;31.50;23.10;;;;;;5019720;28;20481;-61
2023/09/05 08:15:07;;;;;;;2.03;1.60;;;31.50;23.30;;;;;;5014001;28;20031;-61
2023/09/05 08:17:33;;;;;;;2.17;1.60;;;31.60;23.50;;;;;;5024649;28;20159;-61
2023/09/05 08:19:59;;;;;;;1.90;1.38;;;31.60;23.30;;;;;;5023823;28;20030;-61
2023/09/05 08:22:24;;;;;;;2.42;1.55;;;31.70;23.80;;;;;;5024616;28;20025;-61
2023/09/05 08:24:51;;;;;;;2.65;1.60;;;31.60;22.90;;;;;;5021125;28;20014;-61
2023/09/05 08:27:17;;;;;;;2.13;1.25;;;31.40;23.00;;;;;;5019528;28;20120;-61
2023/09/05 08:29:42;;;;;;;1.55;1.20;;;31.50;22.70;;;;;;5019415;28;20104;-61
2023/09/05 08:32:08;;;;;;;2.72;1.50;;;31.50;23.40;;;;;;5019428;28;20532;-61
2023/09/05 08:34:34;;;;;;;1.52;1.40;;;31.40;23.30;;;;;;5019532;28;20048;-61
2023/09/05 08:36:59;;;;;;;2.13;1.48;;;30.90;22.80;;;;;;5019464;28;20440;-61
2023/09/05 08:39:25;;;;;;;3.60;1.52;;;30.60;22.90;;;;;;5025368;28;20065;-61
2023/09/05 08:41:52;;;;;;;2.78;1.35;;;30.70;23.20;;;;;;5015225;28;20104;-61
2023/09/05 08:44:18;;;;;;;2.20;1.70;;;30.50;22.90;;;;;;5019375;28;20022;-61
2023/09/05 08:46:45;;;;;;;1.90;1.50;;;30.50;23.20;;;;;;5019524;28;20056;-61
2023/09/05 08:49:11;;;;;;;1.45;1.35;;;30.20;23.40;;;;;;5019506;28;20022;-61
2023/09/05 08:51:39;;;;;;;1.52;1.40;;;30.30;23.60;;;;;;5019301;28;20041;-61
2023/09/05 08:54:06;;;;;;;2.63;1.50;;;30.30;23.60;;;;;;5018158;28;20026;-61
2023/09/05 08:56:32;;;;;;;1.25;1.15;;;30.50;23.50;;;;;;5024270;28;20021;-61
2023/09/05 08:59:00;;;;;;;1.40;1.30;;;30.30;23.50;;;;;;5023332;28;20401;-61
2023/09/05 09:01:26;;;;;;;2.25;1.60;;;30.20;23.10;;;;;;5022016;28;20020;-61
2023/09/05 09:03:54;;;;;;;1.77;1.30;;;30.10;23.30;;;;;;5020447;28;20040;-61
2023/09/05 09:06:26;;;;;;;2.03;1.45;;;30.10;23.50;;;;;;5018878;28;20065;-61
2023/09/05 09:08:53;;;;;;;2.10;1.65;;;30.00;22.80;;;;;;5021233;28;20037;-61
2023/09/05 09:11:21;;;;;;;1.63;1.30;;;29.60;23.00;;;;;;5019829;28;20026;-61
2023/09/05 09:13:49;;;;;;;1.60;1.50;;;29.60;23.10;;;;;;5013976;28;20062;-61
2023/09/05 09:16:17;;;;;;;3.17;1.25;;;29.80;23.00;;;;;;5028010;28;20444;-61
2023/09/05 09:18:45;;;;;;;1.50;1.30;;;30.00;22.90;;;;;;5017582;28;20038;-61
2023/09/05 09:21:17;;;;;;;2.08;1.20;;;30.10;22.60;;;;;;5018995;28;20030;-61
2023/09/05 09:23:44;;;;;;;1.30;1.20;;;30.00;22.40;;;;;;5019204;28;20438;-61
2023/09/05 09:26:13;;;;;;;2.78;1.35;;;30.10;22.60;;;;;;5021905;28;20516;-61
2023/09/05 09:28:39;;;;;;;2.53;1.33;;;30.00;22.40;;;;;;5019974;28;20034;-61
2023/09/05 09:31:11;;;;;;;2.53;1.50;;;30.10;21.80;;;;;;5016870;28;20044;-61
2023/09/05 09:33:37;;;;;;;1.55;1.13;;;29.60;21.30;;;;;;5017704;28;20026;-61
2023/09/05 09:36:04;;;;;;;1.48;1.30;;;29.50;22.50;;;;;;5020456;28;20400;-61
2023/09/05 09:38:29;;;;;;;1.85;1.30;;;29.50;22.80;;;;;;5018908;28;20042;-61
2023/09/05 09:40:55;;;;;;;1.10;1.00;;;29.30;22.10;;;;;;5025453;28;20104;-61
2023/09/05 09:43:21;;;;;;;2.08;1.38;;;29.50;22.50;;;;;;5020812;28;20021;-61
2023/09/05 09:45:46;;;;;;;1.42;1.10;;;29.30;22.00;;;;;;5021459;28;20040;-60
2023/09/05 09:48:15;;;;;;;2.33;1.40;;;28.90;22.10;;;;;;5028288;28;20037;-60
2023/09/05 09:50:43;;;;;;;1.42;1.17;;;28.90;22.40;;;;;;5020570;28;20104;-61
2023/09/05 09:53:12;;;;;;;2.40;1.50;;;28.80;22.30;;;;;;5019941;28;20037;-61
2023/09/05 09:55:42;;;;;;;1.77;1.30;;;28.90;22.50;;;;;;5026485;28;20095;-61
2023/09/05 09:58:10;;;;;;;3.58;1.65;;;28.80;22.50;;;;;;5018428;28;20052;-61
2023/09/05 10:00:38;;;;;;;1.52;1.40;;;28.50;22.50;;;;;;5022327;28;20033;-61
2023/09/05 10:03:08;;;;;;;1.90;1.30;;;28.20;23.30;;;;;;5022400;28;20112;-61
2023/09/05 10:05:33;;;;;;;2.20;1.42;;;28.10;23.20;;;;;;5026148;28;20025;-61
2023/09/05 10:07:59;;;;;;;2.40;1.77;;;27.80;23.80;;;;;;5022236;28;20029;-61
2023/09/05 10:10:26;;;;;;;1.88;1.30;;;27.70;24.20;;;;;;5023728;28;20022;-60
2023/09/05 10:12:56;;;;;;;2.03;1.45;;;27.80;24.50;;;;;;5024827;28;20233;-57
2023/09/05 10:15:23;;;;;;;3.20;1.55;;;27.70;24.50;;;;;;5017775;28;20018;-56
2023/09/05 10:17:50;;;;;;;3.60;1.30;;;27.60;24.60;;;;;;5027864;28;20059;-55
2023/09/05 10:20:19;;;;;;;3.78;1.50;;;27.40;25.40;;;;;;5019833;28;20170;-56
2023/09/05 10:22:45;;;;;;;1.50;1.35;;;27.20;25.10;;;;;;5018998;28;20026;-60
2023/09/05 10:25:16;;;;;;;1.65;1.38;;;27.30;25.10;;;;;;5023028;28;20381;-59
2023/09/05 10:27:42;;;;;;;2.38;1.52;;;27.30;25.50;;;;;;5018158;28;20083;-59
2023/09/05 10:30:10;;;;;;;1.63;1.23;;;27.20;25.40;;;;;;5021455;28;20103;-59
2023/09/05 10:32:36;;;;;;;2.47;1.20;;;27.10;25.50;;;;;;5021294;28;20052;-59
2023/09/05 10:35:05;;;;;;;1.50;1.40;;;26.90;27.60;;;;;;5021525;28;20021;-59
2023/09/05 10:37:33;;;;;;;1.70;1.35;;;26.80;26.90;;;;;;5021581;28;20021;-59
2023/09/05 10:40:08;;;;;;;1.88;1.40;;;26.90;26.70;;;;;;5021432;28;20025;-59
2023/09/05 10:42:36;;;;;;;1.50;1.40;;;26.90;27.80;;;;;;5021451;28;20025;-59
2023/09/05 10:45:23;;;;;;;3.08;1.48;;;26.60;26.90;;;;;;5021477;28;20559;-59
2023/09/05 10:47:50;;;;;;;3.10;1.40;;;26.50;27.80;;;;;;5028270;28;20022;-59
2023/09/05 10:50:19;;;;;;;1.60;1.42;;;26.40;27.50;;;;;;5022731;28;20026;-59
2023/09/05 10:53:11;;;;;;;2.95;1.35;;;26.40;27.30;;;;;;5018172;28;20069;-59
2023/09/05 10:55:44;;;;;;;1.67;1.20;;;26.40;27.70;;;;;;5014765;28;20439;-59
2023/09/05 10:58:51;;;;;;;1.08;1.02;;;26.40;28.00;;;;;;5023806;28;20017;-59
2023/09/05 11:01:29;;;;;;;1.17;1.05;;;26.40;28.80;;;;;;5021802;28;20021;-59
2023/09/05 11:03:55;;;;;;;1.52;1.30;;;26.50;28.30;;;;;;5019483;28;20080;-59
2023/09/05 11:06:22;;;;;;;1.45;0.90;;;26.50;27.70;;;;;;5019092;28;20045;-59
2023/09/05 11:08:59;;;;;;;1.63;1.13;;;26.50;27.60;;;;;;5027065;28;20101;-59
2023/09/05 11:11:24;;;;;;;2.88;1.42;;;26.50;28.40;;;;;;5017265;28;20557;-59
2023/09/05 11:13:50;;;;;;;1.85;1.45;;;26.50;28.20;;;;;;5016327;28;20069;-59
2023/09/05 11:16:16;;;;;;;1.25;1.13;;;26.50;28.10;;;;;;5020743;28;20033;-59
2023/09/05 11:18:54;;;;;;;2.05;1.13;;;26.50;28.50;;;;;;5020821;28;20031;-59
2023/09/05 11:21:22;;;;;;;1.30;1.10;;;26.50;28.60;;;;;;5020806;28;20363;-59
2023/09/05 11:23:52;;;;;;;2.95;1.60;;;26.50;28.70;;;;;;5018187;28;20501;-59
2023/09/05 11:26:18;;;;;;;3.00;1.33;;;26.50;28.70;;;;;;5019009;28;20038;-59
2023/09/05 11:28:45;;;;;;;1.88;1.25;;;26.50;28.60;;;;;;5024176;28;20086;-59
2023/09/05 11:31:11;;;;;;;1.30;1.20;;;26.50;29.10;;;;;;5017341;28;20064;-58
2023/09/05 11:33:37;;;;;;;1.80;1.20;;;26.40;28.60;;;;;;5022404;28;20062;-59
2023/09/05 11:36:06;;;;;;;1.80;1.42;;;26.20;28.60;;;;;;5023508;28;20029;-59
2023/09/05 11:38:45;;;;;;;3.47;1.42;;;26.10;28.80;;;;;;5007093;28;20545;-59
2023/09/05 11:41:11;;;;;;;3.25;1.48;;;26.10;29.50;;;;;;5020347;28;20018;-59
2023/09/05 11:43:47;;;;;;;1.33;1.10;;;26.20;29.30;;;;;;5017447;28;20033;-58
2023/09/05 11:46:14;;;;;;;2.78;1.15;;;26.20;29.00;;;;;;5018526;28;20091;-59
2023/09/05 11:48:43;;;;;;;1.80;1.27;;;26.20;29.30;;;;;;5018184;28;20067;-59
2023/09/05 11:51:09;;;;;;;1.88;1.27;;;26.20;28.90;;;;;;5019912;28;20036;-61
2023/09/05 11:53:37;;;;;;;1.73;1.33;;;26.10;29.30;;;;;;5020660;28;20045;-61
2023/09/05 11:56:03;;;;;;;1.33;1.15;;;26.10;29.30;;;;;;5020233;28;20021;-61
2023/09/05 11:58:30;;;;;;;1.70;1.13;;;26.20;29.30;;;;;;5020107;28;20098;-61
2023/09/05 12:00:57;;;;;;;1.13;1.10;;;26.20;29.40;;;;;;5019680;28;20437;-60
2023/09/05 12:03:23;;;;;;;1.63;1.30;;;26.20;29.20;;;;;;5027029;28;20037;-60
2023/09/05 12:05:51;;;;;;;1.40;1.30;;;26.20;29.40;;;;;;5021895;28;20022;-61
2023/09/05 12:08:20;;;;;;;1.98;1.40;;;26.20;29.20;;;;;;5017933;28;20025;-60
2023/09/05 12:10:51;;;;;;;2.22;1.27;;;26.20;29.20;;;;;;5020645;28;20017;-61
2023/09/05 12:13:17;;;;;;;2.88;1.27;;;26.30;29.30;;;;;;5014870;28;20041;-60
2023/09/05 12:15:45;;;;;;;1.27;1.17;;;26.30;29.30;;;;;;5022873;28;20033;-60
2023/09/05 12:18:19;;;;;;;1.27;1.13;;;26.30;29.60;;;;;;5020413;28;20029;-61
2023/09/05 12:20:55;;;;;;;1.15;1.02;;;26.30;29.50;;;;;;5025058;28;20483;-60
2023/09/05 12:23:24;;;;;;;1.60;1.27;;;26.30;29.60;;;;;;5021603;28;20503;-60
2023/09/05 12:25:54;;;;;;;1.45;1.10;;;26.30;29.70;;;;;;5017527;28;20087;-61
2023/09/05 12:28:20;;;;;;;1.80;1.17;;;26.30;29.40;;;;;;5015921;28;20022;-60
2023/09/05 12:30:50;;;;;;;1.73;1.40;;;26.30;29.40;;;;;;5022392;28;20032;-61
2023/09/05 12:33:16;;;;;;;1.83;1.20;;;26.30;29.20;;;;;;5023029;28;20131;-60
2023/09/05 12:35:43;;;;;;;1.92;1.67;;;26.20;29.30;;;;;;5016637;28;20034;-60
2023/09/05 12:38:10;;;;;;;3.40;1.38;;;26.20;29.80;;;;;;5021806;28;20090;-61
2023/09/05 12:40:36;;;;;;;2.92;1.60;;;26.20;29.70;;;;;;5013772;28;20481;-60
2023/09/05 12:43:02;;;;;;;1.30;1.20;;;26.10;29.80;;;;;;5011670;28;20021;-60
2023/09/05 12:45:28;;;;;;;2.25;1.42;;;26.10;30.30;;;;;;5015230;28;20023;-61